sensor_id;sensor_type;location;lat;lon;timestamp;temperature;humidity
52127;DHT22;38120;53.176;6.614;2023-02-15T00:02:14;1.10;99.90
52127;DHT22;38120;53.176;6.614;2023-02-15T00:04:39;1.10;99.90
52127;DHT22;38120;53.176;6.614;2023-02-15T00:07:17;1.10;99.90
52127;DHT22;38120;53.176;6.614;2023-02-15T00:09:45;1.10;99.90
52127;DHT22;38120;53.176;6.614;2023-02-15T00:12:11;1.10;99.90
52127;DHT22;38120;53.176;6.614;2023-02-15T00:14:36;1.10;99.90
52127;DHT22;38120;53.176;6.614;2023-02-15T00:17:02;1.10;99.90
52127;DHT22;38120;53.176;6.614;2023-02-15T00:19:28;1.00;99.90
52127;DHT22;38120;53.176;6.614;2023-02-15T00:21:53;1.00;99.90
52127;DHT22;38120;53.176;6.614;2023-02-15T00:24:19;1.00;99.90
52127;DHT22;38120;53.176;6.614;2023-02-15T00:26:46;1.00;99.90
52127;DHT22;38120;53.176;6.614;2023-02-15T00:29:14;1.00;99.90
52127;DHT22;38120;53.176;6.614;2023-02-15T00:31:41;1.00;99.90
52127;DHT22;38120;53.176;6.614;2023-02-15T00:34:19;0.90;99.90
52127;DHT22;38120;53.176;6.614;2023-02-15T00:36:52;0.90;99.90
52127;DHT22;38120;53.176;6.614;2023-02-15T00:39:18;1.00;99.90
52127;DHT22;38120;53.176;6.614;2023-02-15T00:41:45;1.20;99.90
52127;DHT22;38120;53.176;6.614;2023-02-15T00:44:11;0.80;99.90
52127;DHT22;38120;53.176;6.614;2023-02-15T00:46:37;2.50;99.90
52127;DHT22;38120;53.176;6.614;2023-02-15T00:49:03;0.80;99.90
52127;DHT22;38120;53.176;6.614;2023-02-15T00:51:34;0.80;99.90
52127;DHT22;38120;53.176;6.614;2023-02-15T00:54:00;0.90;99.90
52127;DHT22;38120;53.176;6.614;2023-02-15T00:56:26;1.50;99.90
52127;DHT22;38120;53.176;6.614;2023-02-15T00:58:53;0.70;99.90
52127;DHT22;38120;53.176;6.614;2023-02-15T01:01:20;0.70;99.90
52127;DHT22;38120;53.176;6.614;2023-02-15T01:03:47;0.70;99.90
52127;DHT22;38120;53.176;6.614;2023-02-15T01:06:14;0.70;99.90
52127;DHT22;38120;53.176;6.614;2023-02-15T01:08:40;0.70;99.90
52127;DHT22;38120;53.176;6.614;2023-02-15T01:11:08;0.70;99.90
52127;DHT22;38120;53.176;6.614;2023-02-15T01:13:35;0.80;99.90
52127;DHT22;38120;53.176;6.614;2023-02-15T01:16:01;0.80;99.90
52127;DHT22;38120;53.176;6.614;2023-02-15T01:18:27;0.70;99.90
52127;DHT22;38120;53.176;6.614;2023-02-15T01:20:53;1.10;99.90
52127;DHT22;38120;53.176;6.614;2023-02-15T01:23:19;0.70;99.90
52127;DHT22;38120;53.176;6.614;2023-02-15T01:25:45;0.70;99.90
52127;DHT22;38120;53.176;6.614;2023-02-15T01:28:10;2.40;99.90
52127;DHT22;38120;53.176;6.614;2023-02-15T01:30:36;0.70;99.90
52127;DHT22;38120;53.176;6.614;2023-02-15T01:33:02;0.60;99.90
52127;DHT22;38120;53.176;6.614;2023-02-15T01:35:28;0.70;99.90
52127;DHT22;38120;53.176;6.614;2023-02-15T01:37:55;1.60;99.90
52127;DHT22;38120;53.176;6.614;2023-02-15T01:40:21;0.60;99.90
52127;DHT22;38120;53.176;6.614;2023-02-15T01:42:51;0.50;99.90
52127;DHT22;38120;53.176;6.614;2023-02-15T01:45:25;0.90;99.90
52127;DHT22;38120;53.176;6.614;2023-02-15T01:48:20;0.40;99.90
52127;DHT22;38120;53.176;6.614;2023-02-15T01:50:56;0.40;99.90
52127;DHT22;38120;53.176;6.614;2023-02-15T01:53:47;0.40;99.90
52127;DHT22;38120;53.176;6.614;2023-02-15T01:56:21;0.30;99.90
52127;DHT22;38120;53.176;6.614;2023-02-15T01:58:50;0.30;99.90
52127;DHT22;38120;53.176;6.614;2023-02-15T02:01:18;0.30;99.90
52127;DHT22;38120;53.176;6.614;2023-02-15T02:04:11;0.30;99.90
52127;DHT22;38120;53.176;6.614;2023-02-15T02:06:39;0.20;99.90
52127;DHT22;38120;53.176;6.614;2023-02-15T02:09:05;0.20;99.90
52127;DHT22;38120;53.176;6.614;2023-02-15T02:11:31;0.20;99.90
52127;DHT22;38120;53.176;6.614;2023-02-15T02:13:58;0.20;99.90
52127;DHT22;38120;53.176;6.614;2023-02-15T02:16:25;0.20;99.90
52127;DHT22;38120;53.176;6.614;2023-02-15T02:19:08;0.30;99.90
52127;DHT22;38120;53.176;6.614;2023-02-15T02:27:16;0.10;99.90
52127;DHT22;38120;53.176;6.614;2023-02-15T02:36:18;0.10;99.90
52127;DHT22;38120;53.176;6.614;2023-02-15T02:38:46;0.10;99.90
52127;DHT22;38120;53.176;6.614;2023-02-15T02:41:24;0.10;99.90
52127;DHT22;38120;53.176;6.614;2023-02-15T02:44:28;0.10;99.90
52127;DHT22;38120;53.176;6.614;2023-02-15T02:49:41;0.00;99.90
52127;DHT22;38120;53.176;6.614;2023-02-15T02:52:38;0.00;99.90
52127;DHT22;38120;53.176;6.614;2023-02-15T02:55:11;0.00;99.90
52127;DHT22;38120;53.176;6.614;2023-02-15T02:57:46;0.00;99.90
52127;DHT22;38120;53.176;6.614;2023-02-15T03:00:15;-0.10;99.90
52127;DHT22;38120;53.176;6.614;2023-02-15T03:02:45;-0.10;99.90
52127;DHT22;38120;53.176;6.614;2023-02-15T03:05:16;-0.10;99.90
52127;DHT22;38120;53.176;6.614;2023-02-15T03:07:48;0.00;99.90
52127;DHT22;38120;53.176;6.614;2023-02-15T03:10:15;0.00;99.90
52127;DHT22;38120;53.176;6.614;2023-02-15T03:12:42;-0.10;99.90
52127;DHT22;38120;53.176;6.614;2023-02-15T03:15:21;0.00;99.90
52127;DHT22;38120;53.176;6.614;2023-02-15T03:17:56;0.00;99.90
52127;DHT22;38120;53.176;6.614;2023-02-15T03:20:27;0.00;99.90
52127;DHT22;38120;53.176;6.614;2023-02-15T03:22:59;-0.10;99.90
52127;DHT22;38120;53.176;6.614;2023-02-15T03:25:34;-0.20;99.90
52127;DHT22;38120;53.176;6.614;2023-02-15T03:28:05;0.00;99.90
52127;DHT22;38120;53.176;6.614;2023-02-15T03:30:32;-0.10;99.90
52127;DHT22;38120;53.176;6.614;2023-02-15T03:33:00;-0.20;99.90
52127;DHT22;38120;53.176;6.614;2023-02-15T03:35:46;-0.20;99.90
52127;DHT22;38120;53.176;6.614;2023-02-15T03:38:19;-0.20;99.90
52127;DHT22;38120;53.176;6.614;2023-02-15T03:40:47;0.70;99.90
52127;DHT22;38120;53.176;6.614;2023-02-15T03:49:39;-0.30;99.90
52127;DHT22;38120;53.176;6.614;2023-02-15T03:52:08;-0.20;99.90
52127;DHT22;38120;53.176;6.614;2023-02-15T03:54:36;-0.20;99.90
52127;DHT22;38120;53.176;6.614;2023-02-15T04:00:21;-0.20;99.90
52127;DHT22;38120;53.176;6.614;2023-02-15T04:05:48;-0.20;99.90
52127;DHT22;38120;53.176;6.614;2023-02-15T04:08:14;-0.20;99.90
52127;DHT22;38120;53.176;6.614;2023-02-15T04:10:40;-0.20;99.90
52127;DHT22;38120;53.176;6.614;2023-02-15T04:13:23;-0.20;99.90
52127;DHT22;38120;53.176;6.614;2023-02-15T04:15:50;-0.30;99.90
52127;DHT22;38120;53.176;6.614;2023-02-15T04:18:42;-0.20;99.90
52127;DHT22;38120;53.176;6.614;2023-02-15T04:21:28;-0.30;99.90
52127;DHT22;38120;53.176;6.614;2023-02-15T04:24:14;-0.30;99.90
52127;DHT22;38120;53.176;6.614;2023-02-15T04:26:59;-0.30;99.90
52127;DHT22;38120;53.176;6.614;2023-02-15T04:29:26;-0.30;99.90
52127;DHT22;38120;53.176;6.614;2023-02-15T04:31:55;-0.40;99.90
52127;DHT22;38120;53.176;6.614;2023-02-15T04:34:21;-0.30;99.90
52127;DHT22;38120;53.176;6.614;2023-02-15T04:36:46;-0.30;99.90
52127;DHT22;38120;53.176;6.614;2023-02-15T04:39:14;-0.30;99.90
52127;DHT22;38120;53.176;6.614;2023-02-15T04:41:40;-0.30;99.90
52127;DHT22;38120;53.176;6.614;2023-02-15T04:44:05;-0.30;99.90
52127;DHT22;38120;53.176;6.614;2023-02-15T04:46:31;-0.30;99.90
52127;DHT22;38120;53.176;6.614;2023-02-15T04:48:57;-0.40;99.90
52127;DHT22;38120;53.176;6.614;2023-02-15T04:51:23;-0.30;99.90
52127;DHT22;38120;53.176;6.614;2023-02-15T04:53:49;-0.30;99.90
52127;DHT22;38120;53.176;6.614;2023-02-15T04:56:14;-0.40;99.90
52127;DHT22;38120;53.176;6.614;2023-02-15T04:58:40;-0.30;99.90
52127;DHT22;38120;53.176;6.614;2023-02-15T05:01:10;-1.40;99.90
52127;DHT22;38120;53.176;6.614;2023-02-15T05:03:36;-0.40;99.90
52127;DHT22;38120;53.176;6.614;2023-02-15T05:06:02;-0.30;99.90
52127;DHT22;38120;53.176;6.614;2023-02-15T05:08:27;-0.30;99.90
52127;DHT22;38120;53.176;6.614;2023-02-15T05:10:53;-0.40;99.90
52127;DHT22;38120;53.176;6.614;2023-02-15T05:13:19;-0.40;99.90
52127;DHT22;38120;53.176;6.614;2023-02-15T05:15:52;0.20;99.90
52127;DHT22;38120;53.176;6.614;2023-02-15T05:18:19;-0.50;99.90
52127;DHT22;38120;53.176;6.614;2023-02-15T05:20:46;-0.50;99.90
52127;DHT22;38120;53.176;6.614;2023-02-15T05:23:12;-0.50;99.90
52127;DHT22;38120;53.176;6.614;2023-02-15T05:25:38;-0.50;99.90
52127;DHT22;38120;53.176;6.614;2023-02-15T05:28:24;0.30;99.90
52127;DHT22;38120;53.176;6.614;2023-02-15T05:31:11;-0.60;99.90
52127;DHT22;38120;53.176;6.614;2023-02-15T05:33:38;-0.50;99.90
52127;DHT22;38120;53.176;6.614;2023-02-15T05:36:05;-0.50;99.90
52127;DHT22;38120;53.176;6.614;2023-02-15T05:38:31;-0.60;99.90
52127;DHT22;38120;53.176;6.614;2023-02-15T05:40:57;0.00;99.90
52127;DHT22;38120;53.176;6.614;2023-02-15T05:43:23;-0.60;99.90
52127;DHT22;38120;53.176;6.614;2023-02-15T05:45:51;-0.50;99.90
52127;DHT22;38120;53.176;6.614;2023-02-15T05:48:18;-0.50;99.90
52127;DHT22;38120;53.176;6.614;2023-02-15T05:50:45;-0.60;99.90
52127;DHT22;38120;53.176;6.614;2023-02-15T05:53:11;-0.60;99.90
52127;DHT22;38120;53.176;6.614;2023-02-15T05:55:38;-0.60;99.90
52127;DHT22;38120;53.176;6.614;2023-02-15T05:58:05;-0.50;99.90
52127;DHT22;38120;53.176;6.614;2023-02-15T06:00:31;-0.70;99.90
52127;DHT22;38120;53.176;6.614;2023-02-15T06:02:56;-0.70;99.90
52127;DHT22;38120;53.176;6.614;2023-02-15T06:05:22;-0.70;99.90
52127;DHT22;38120;53.176;6.614;2023-02-15T06:07:48;-0.70;99.90
52127;DHT22;38120;53.176;6.614;2023-02-15T06:10:14;-0.70;99.90
52127;DHT22;38120;53.176;6.614;2023-02-15T06:12:39;-0.70;99.90
52127;DHT22;38120;53.176;6.614;2023-02-15T06:15:05;0.00;99.90
52127;DHT22;38120;53.176;6.614;2023-02-15T06:17:32;-0.60;99.90
52127;DHT22;38120;53.176;6.614;2023-02-15T06:19:58;-0.60;99.90
52127;DHT22;38120;53.176;6.614;2023-02-15T06:22:23;-0.60;99.90
52127;DHT22;38120;53.176;6.614;2023-02-15T06:24:49;-0.60;99.90
52127;DHT22;38120;53.176;6.614;2023-02-15T06:27:15;-0.70;99.90
52127;DHT22;38120;53.176;6.614;2023-02-15T06:29:41;0.10;99.90
52127;DHT22;38120;53.176;6.614;2023-02-15T06:32:07;-0.40;99.90
52127;DHT22;38120;53.176;6.614;2023-02-15T06:34:32;0.00;99.90
52127;DHT22;38120;53.176;6.614;2023-02-15T06:36:58;-0.70;99.90
52127;DHT22;38120;53.176;6.614;2023-02-15T06:39:24;-0.70;99.90
52127;DHT22;38120;53.176;6.614;2023-02-15T06:41:50;-0.70;99.90
52127;DHT22;38120;53.176;6.614;2023-02-15T06:44:15;-0.80;99.90
52127;DHT22;38120;53.176;6.614;2023-02-15T06:46:41;-0.70;99.90
52127;DHT22;38120;53.176;6.614;2023-02-15T06:49:07;-0.70;99.90
52127;DHT22;38120;53.176;6.614;2023-02-15T06:51:32;-0.60;99.90
52127;DHT22;38120;53.176;6.614;2023-02-15T06:53:59;-0.60;99.90
52127;DHT22;38120;53.176;6.614;2023-02-15T06:56:25;-0.40;99.90
52127;DHT22;38120;53.176;6.614;2023-02-15T06:58:51;-0.30;99.90
52127;DHT22;38120;53.176;6.614;2023-02-15T07:01:18;-0.30;99.90
52127;DHT22;38120;53.176;6.614;2023-02-15T07:03:43;-0.20;99.90
52127;DHT22;38120;53.176;6.614;2023-02-15T07:06:10;0.10;99.90
52127;DHT22;38120;53.176;6.614;2023-02-15T07:08:37;-0.10;99.90
52127;DHT22;38120;53.176;6.614;2023-02-15T07:11:04;-0.10;99.90
52127;DHT22;38120;53.176;6.614;2023-02-15T07:13:49;-0.10;99.90
52127;DHT22;38120;53.176;6.614;2023-02-15T07:16:15;0.10;99.90
52127;DHT22;38120;53.176;6.614;2023-02-15T07:18:41;0.10;99.90
52127;DHT22;38120;53.176;6.614;2023-02-15T07:21:07;0.10;99.90
52127;DHT22;38120;53.176;6.614;2023-02-15T07:23:37;0.30;99.90
52127;DHT22;38120;53.176;6.614;2023-02-15T07:26:04;0.30;99.90
52127;DHT22;38120;53.176;6.614;2023-02-15T07:28:30;0.40;99.90
52127;DHT22;38120;53.176;6.614;2023-02-15T07:31:07;0.40;99.90
52127;DHT22;38120;53.176;6.614;2023-02-15T07:33:34;0.60;99.90
52127;DHT22;38120;53.176;6.614;2023-02-15T07:36:01;0.60;99.90
52127;DHT22;38120;53.176;6.614;2023-02-15T07:38:31;0.70;99.90
52127;DHT22;38120;53.176;6.614;2023-02-15T07:41:04;0.70;99.90
52127;DHT22;38120;53.176;6.614;2023-02-15T07:43:32;0.70;99.90
52127;DHT22;38120;53.176;6.614;2023-02-15T07:46:02;0.80;99.90
52127;DHT22;38120;53.176;6.614;2023-02-15T07:48:29;0.90;99.90
52127;DHT22;38120;53.176;6.614;2023-02-15T07:50:59;0.90;99.90
52127;DHT22;38120;53.176;6.614;2023-02-15T07:53:24;2.30;99.90
52127;DHT22;38120;53.176;6.614;2023-02-15T07:55:50;1.10;99.90
52127;DHT22;38120;53.176;6.614;2023-02-15T07:58:18;1.10;99.90
52127;DHT22;38120;53.176;6.614;2023-02-15T08:00:44;1.20;99.90
52127;DHT22;38120;53.176;6.614;2023-02-15T08:03:26;1.20;99.90
52127;DHT22;38120;53.176;6.614;2023-02-15T08:05:58;1.30;99.90
52127;DHT22;38120;53.176;6.614;2023-02-15T08:08:26;1.50;99.90
52127;DHT22;38120;53.176;6.614;2023-02-15T08:11:17;1.30;99.90
52127;DHT22;38120;53.176;6.614;2023-02-15T08:14:09;1.30;99.90
52127;DHT22;38120;53.176;6.614;2023-02-15T08:19:12;1.60;99.90
52127;DHT22;38120;53.176;6.614;2023-02-15T08:21:40;1.60;99.90
52127;DHT22;38120;53.176;6.614;2023-02-15T08:24:07;1.70;99.90
52127;DHT22;38120;53.176;6.614;2023-02-15T08:26:34;1.70;99.90
52127;DHT22;38120;53.176;6.614;2023-02-15T08:29:00;1.80;99.90
52127;DHT22;38120;53.176;6.614;2023-02-15T08:31:27;1.90;99.90
52127;DHT22;38120;53.176;6.614;2023-02-15T08:33:53;1.90;99.90
52127;DHT22;38120;53.176;6.614;2023-02-15T08:36:22;2.00;99.90
52127;DHT22;38120;53.176;6.614;2023-02-15T08:38:48;2.10;99.90
52127;DHT22;38120;53.176;6.614;2023-02-15T08:41:21;2.10;99.90
52127;DHT22;38120;53.176;6.614;2023-02-15T08:43:49;2.30;99.90
52127;DHT22;38120;53.176;6.614;2023-02-15T08:46:23;2.30;99.90
52127;DHT22;38120;53.176;6.614;2023-02-15T08:48:49;2.30;99.90
52127;DHT22;38120;53.176;6.614;2023-02-15T08:51:18;2.50;99.90
52127;DHT22;38120;53.176;6.614;2023-02-15T08:53:49;2.50;99.90
52127;DHT22;38120;53.176;6.614;2023-02-15T08:56:16;2.50;99.90
52127;DHT22;38120;53.176;6.614;2023-02-15T08:58:41;2.60;99.90
52127;DHT22;38120;53.176;6.614;2023-02-15T09:01:12;2.60;99.90
52127;DHT22;38120;53.176;6.614;2023-02-15T09:03:39;4.10;99.90
52127;DHT22;38120;53.176;6.614;2023-02-15T09:06:06;2.70;99.90
52127;DHT22;38120;53.176;6.614;2023-02-15T09:08:32;2.80;99.90
52127;DHT22;38120;53.176;6.614;2023-02-15T09:11:17;2.80;99.90
52127;DHT22;38120;53.176;6.614;2023-02-15T09:13:48;2.90;99.90
52127;DHT22;38120;53.176;6.614;2023-02-15T09:16:15;2.90;99.90
52127;DHT22;38120;53.176;6.614;2023-02-15T09:18:44;3.00;99.90
52127;DHT22;38120;53.176;6.614;2023-02-15T09:21:15;3.00;99.90
52127;DHT22;38120;53.176;6.614;2023-02-15T09:23:42;3.10;99.90
52127;DHT22;38120;53.176;6.614;2023-02-15T09:26:14;3.10;99.90
52127;DHT22;38120;53.176;6.614;2023-02-15T09:28:40;3.20;99.90
52127;DHT22;38120;53.176;6.614;2023-02-15T09:33:36;3.30;99.90
52127;DHT22;38120;53.176;6.614;2023-02-15T09:36:03;3.40;99.90
52127;DHT22;38120;53.176;6.614;2023-02-15T09:38:29;3.50;99.90
52127;DHT22;38120;53.176;6.614;2023-02-15T09:57:58;4.20;99.90
52127;DHT22;38120;53.176;6.614;2023-02-15T10:20:08;5.00;99.90
52127;DHT22;38120;53.176;6.614;2023-02-15T10:23:11;5.00;99.90
52127;DHT22;38120;53.176;6.614;2023-02-15T10:28:12;5.30;99.90
52127;DHT22;38120;53.176;6.614;2023-02-15T10:33:38;5.40;99.90
52127;DHT22;38120;53.176;6.614;2023-02-15T10:50:10;5.80;99.90
52127;DHT22;38120;53.176;6.614;2023-02-15T11:00:34;6.20;99.90
52127;DHT22;38120;53.176;6.614;2023-02-15T11:03:23;6.30;99.90
52127;DHT22;38120;53.176;6.614;2023-02-15T11:08:34;6.50;99.90
52127;DHT22;38120;53.176;6.614;2023-02-15T11:11:04;6.60;99.90
52127;DHT22;38120;53.176;6.614;2023-02-15T11:13:39;6.70;99.90
52127;DHT22;38120;53.176;6.614;2023-02-15T11:16:15;6.80;99.90
52127;DHT22;38120;53.176;6.614;2023-02-15T11:18:53;6.90;99.90
52127;DHT22;38120;53.176;6.614;2023-02-15T11:23:46;7.10;99.90
52127;DHT22;38120;53.176;6.614;2023-02-15T11:29:23;7.20;99.90
52127;DHT22;38120;53.176;6.614;2023-02-15T11:31:59;7.30;99.90
52127;DHT22;38120;53.176;6.614;2023-02-15T11:34:40;7.30;99.90
52127;DHT22;38120;53.176;6.614;2023-02-15T11:37:17;7.50;99.90
52127;DHT22;38120;53.176;6.614;2023-02-15T11:39:43;7.60;99.90
52127;DHT22;38120;53.176;6.614;2023-02-15T11:42:14;7.70;99.90
52127;DHT22;38120;53.176;6.614;2023-02-15T11:45:07;7.70;99.90
52127;DHT22;38120;53.176;6.614;2023-02-15T11:47:40;7.80;99.90
52127;DHT22;38120;53.176;6.614;2023-02-15T11:50:10;9.30;99.90
52127;DHT22;38120;53.176;6.614;2023-02-15T11:52:36;8.00;99.90
52127;DHT22;38120;53.176;6.614;2023-02-15T11:55:02;8.10;99.90
52127;DHT22;38120;53.176;6.614;2023-02-15T11:57:38;8.20;99.90
52127;DHT22;38120;53.176;6.614;2023-02-15T12:00:42;8.40;99.90
52127;DHT22;38120;53.176;6.614;2023-02-15T12:03:45;8.50;99.90
52127;DHT22;38120;53.176;6.614;2023-02-15T12:11:54;8.90;99.90
52127;DHT22;38120;53.176;6.614;2023-02-15T12:14:48;8.90;99.90
52127;DHT22;38120;53.176;6.614;2023-02-15T12:17:16;9.10;99.90
52127;DHT22;38120;53.176;6.614;2023-02-15T12:19:43;9.20;99.90
52127;DHT22;38120;53.176;6.614;2023-02-15T12:24:50;9.30;99.90
52127;DHT22;38120;53.176;6.614;2023-02-15T12:27:29;9.40;99.90
52127;DHT22;38120;53.176;6.614;2023-02-15T12:30:06;9.40;99.90
52127;DHT22;38120;53.176;6.614;2023-02-15T12:32:46;9.40;99.90
52127;DHT22;38120;53.176;6.614;2023-02-15T12:35:15;9.40;99.90
52127;DHT22;38120;53.176;6.614;2023-02-15T12:37:55;9.50;99.90
52127;DHT22;38120;53.176;6.614;2023-02-15T12:40:30;9.50;99.90
52127;DHT22;38120;53.176;6.614;2023-02-15T12:42:56;9.50;99.90
52127;DHT22;38120;53.176;6.614;2023-02-15T12:45:24;9.60;99.90
52127;DHT22;38120;53.176;6.614;2023-02-15T12:48:17;9.60;99.90
52127;DHT22;38120;53.176;6.614;2023-02-15T12:50:48;9.60;99.90
52127;DHT22;38120;53.176;6.614;2023-02-15T12:53:29;9.70;99.90
52127;DHT22;38120;53.176;6.614;2023-02-15T12:56:04;9.80;99.90
52127;DHT22;38120;53.176;6.614;2023-02-15T12:58:34;9.80;99.90
52127;DHT22;38120;53.176;6.614;2023-02-15T13:06:25;9.90;99.90
52127;DHT22;38120;53.176;6.614;2023-02-15T13:08:53;10.00;99.90
52127;DHT22;38120;53.176;6.614;2023-02-15T13:11:29;10.00;99.90
52127;DHT22;38120;53.176;6.614;2023-02-15T13:14:16;10.00;99.90
52127;DHT22;38120;53.176;6.614;2023-02-15T13:16:45;10.00;99.90
52127;DHT22;38120;53.176;6.614;2023-02-15T13:19:16;10.10;99.90
52127;DHT22;38120;53.176;6.614;2023-02-15T13:21:51;10.10;99.90
52127;DHT22;38120;53.176;6.614;2023-02-15T13:24:32;10.10;99.90
52127;DHT22;38120;53.176;6.614;2023-02-15T13:26:59;10.10;99.90
52127;DHT22;38120;53.176;6.614;2023-02-15T13:29:41;10.10;99.90
52127;DHT22;38120;53.176;6.614;2023-02-15T13:34:50;10.20;99.90
52127;DHT22;38120;53.176;6.614;2023-02-15T13:40:06;10.30;99.90
52127;DHT22;38120;53.176;6.614;2023-02-15T13:43:23;10.40;99.90
52127;DHT22;38120;53.176;6.614;2023-02-15T13:46:01;10.30;99.90
52127;DHT22;38120;53.176;6.614;2023-02-15T14:05:28;10.30;99.90
52127;DHT22;38120;53.176;6.614;2023-02-15T14:08:08;10.30;99.90
52127;DHT22;38120;53.176;6.614;2023-02-15T14:19:35;10.40;99.90
52127;DHT22;38120;53.176;6.614;2023-02-15T14:22:30;10.40;99.90
52127;DHT22;38120;53.176;6.614;2023-02-15T14:25:14;10.40;99.90
52127;DHT22;38120;53.176;6.614;2023-02-15T14:28:14;10.40;99.90
52127;DHT22;38120;53.176;6.614;2023-02-15T14:30:50;10.40;99.90
52127;DHT22;38120;53.176;6.614;2023-02-15T14:33:37;10.40;99.90
52127;DHT22;38120;53.176;6.614;2023-02-15T14:36:06;10.40;99.90
52127;DHT22;38120;53.176;6.614;2023-02-15T14:41:31;10.40;99.90
52127;DHT22;38120;53.176;6.614;2023-02-15T14:44:20;10.40;99.90
52127;DHT22;38120;53.176;6.614;2023-02-15T14:49:39;10.40;99.90
52127;DHT22;38120;53.176;6.614;2023-02-15T14:52:10;10.40;99.90
52127;DHT22;38120;53.176;6.614;2023-02-15T15:07:47;10.20;99.90
52127;DHT22;38120;53.176;6.614;2023-02-15T15:10:38;10.10;99.90
52127;DHT22;38120;53.176;6.614;2023-02-15T15:16:24;10.00;99.90
52127;DHT22;38120;53.176;6.614;2023-02-15T15:18:50;10.00;99.90
52127;DHT22;38120;53.176;6.614;2023-02-15T15:46:42;9.50;99.90
52127;DHT22;38120;53.176;6.614;2023-02-15T15:49:15;9.40;99.90
52127;DHT22;38120;53.176;6.614;2023-02-15T15:51:42;9.30;99.90
52127;DHT22;38120;53.176;6.614;2023-02-15T15:54:24;9.30;99.90
52127;DHT22;38120;53.176;6.614;2023-02-15T15:57:00;9.30;99.90
52127;DHT22;38120;53.176;6.614;2023-02-15T15:59:30;9.20;99.90
52127;DHT22;38120;53.176;6.614;2023-02-15T16:02:06;9.10;99.90
52127;DHT22;38120;53.176;6.614;2023-02-15T16:04:34;9.10;99.90
52127;DHT22;38120;53.176;6.614;2023-02-15T16:10:06;8.90;99.90
52127;DHT22;38120;53.176;6.614;2023-02-15T16:12:36;8.90;99.90
52127;DHT22;38120;53.176;6.614;2023-02-15T16:15:23;8.80;99.90
52127;DHT22;38120;53.176;6.614;2023-02-15T16:17:53;8.70;99.90
52127;DHT22;38120;53.176;6.614;2023-02-15T16:20:38;8.70;99.90
52127;DHT22;38120;53.176;6.614;2023-02-15T16:26:28;8.50;99.90
52127;DHT22;38120;53.176;6.614;2023-02-15T16:28:58;8.40;99.90
52127;DHT22;38120;53.176;6.614;2023-02-15T16:31:24;8.30;99.90
52127;DHT22;38120;53.176;6.614;2023-02-15T16:33:59;8.30;99.90
52127;DHT22;38120;53.176;6.614;2023-02-15T16:36:28;8.30;99.90
52127;DHT22;38120;53.176;6.614;2023-02-15T16:41:28;8.20;99.90
52127;DHT22;38120;53.176;6.614;2023-02-15T16:43:57;8.10;99.90
52127;DHT22;38120;53.176;6.614;2023-02-15T16:48:54;7.90;99.90
52127;DHT22;38120;53.176;6.614;2023-02-15T16:51:25;7.80;99.90
52127;DHT22;38120;53.176;6.614;2023-02-15T16:53:52;7.80;99.90
52127;DHT22;38120;53.176;6.614;2023-02-15T16:56:24;7.80;99.90
52127;DHT22;38120;53.176;6.614;2023-02-15T16:58:53;7.60;99.90
52127;DHT22;38120;53.176;6.614;2023-02-15T17:01:22;7.60;99.90
52127;DHT22;38120;53.176;6.614;2023-02-15T17:03:51;7.50;99.90
52127;DHT22;38120;53.176;6.614;2023-02-15T17:06:25;7.40;99.90
52127;DHT22;38120;53.176;6.614;2023-02-15T17:08:51;7.30;99.90
52127;DHT22;38120;53.176;6.614;2023-02-15T17:11:21;7.20;99.90
52127;DHT22;38120;53.176;6.614;2023-02-15T17:16:42;7.10;99.90
52127;DHT22;38120;53.176;6.614;2023-02-15T17:19:25;7.10;99.90
52127;DHT22;38120;53.176;6.614;2023-02-15T17:21:58;7.00;99.90
52127;DHT22;38120;53.176;6.614;2023-02-15T17:26:58;6.90;99.90
52127;DHT22;38120;53.176;6.614;2023-02-15T17:29:34;6.80;99.90
52127;DHT22;38120;53.176;6.614;2023-02-15T17:32:18;6.80;99.90
52127;DHT22;38120;53.176;6.614;2023-02-15T17:34:58;6.70;99.90
52127;DHT22;38120;53.176;6.614;2023-02-15T17:37:29;6.80;99.90
52127;DHT22;38120;53.176;6.614;2023-02-15T17:39:57;6.50;99.90
52127;DHT22;38120;53.176;6.614;2023-02-15T17:42:24;6.50;99.90
52127;DHT22;38120;53.176;6.614;2023-02-15T17:44:50;6.40;99.90
52127;DHT22;38120;53.176;6.614;2023-02-15T17:47:22;6.40;99.90
52127;DHT22;38120;53.176;6.614;2023-02-15T17:49:50;6.30;99.90
52127;DHT22;38120;53.176;6.614;2023-02-15T17:52:16;6.30;99.90
52127;DHT22;38120;53.176;6.614;2023-02-15T17:54:43;6.40;99.90
52127;DHT22;38120;53.176;6.614;2023-02-15T17:57:29;6.50;99.90
52127;DHT22;38120;53.176;6.614;2023-02-15T17:59:56;6.60;99.90
52127;DHT22;38120;53.176;6.614;2023-02-15T18:02:40;6.60;99.90
52127;DHT22;38120;53.176;6.614;2023-02-15T18:05:25;6.60;99.90
52127;DHT22;38120;53.176;6.614;2023-02-15T18:08:14;6.60;99.90
52127;DHT22;38120;53.176;6.614;2023-02-15T18:10:59;6.60;99.90
52127;DHT22;38120;53.176;6.614;2023-02-15T18:13:44;6.60;99.90
52127;DHT22;38120;53.176;6.614;2023-02-15T18:16:16;6.60;99.90
52127;DHT22;38120;53.176;6.614;2023-02-15T18:18:44;6.60;99.90
52127;DHT22;38120;53.176;6.614;2023-02-15T18:21:11;6.70;99.90
52127;DHT22;38120;53.176;6.614;2023-02-15T18:23:38;6.70;99.90
52127;DHT22;38120;53.176;6.614;2023-02-15T18:26:04;6.70;99.90
52127;DHT22;38120;53.176;6.614;2023-02-15T18:28:30;6.70;99.90
52127;DHT22;38120;53.176;6.614;2023-02-15T18:30:57;6.70;99.90
52127;DHT22;38120;53.176;6.614;2023-02-15T18:33:33;7.00;99.90
52127;DHT22;38120;53.176;6.614;2023-02-15T18:36:01;6.70;99.90
52127;DHT22;38120;53.176;6.614;2023-02-15T18:38:27;6.70;99.90
52127;DHT22;38120;53.176;6.614;2023-02-15T18:40:54;6.70;99.90
52127;DHT22;38120;53.176;6.614;2023-02-15T18:43:19;6.60;99.90
52127;DHT22;38120;53.176;6.614;2023-02-15T18:45:48;6.60;99.90
52127;DHT22;38120;53.176;6.614;2023-02-15T18:48:13;6.50;99.90
52127;DHT22;38120;53.176;6.614;2023-02-15T18:50:40;6.50;99.90
52127;DHT22;38120;53.176;6.614;2023-02-15T18:53:14;6.50;99.90
52127;DHT22;38120;53.176;6.614;2023-02-15T18:55:40;6.50;99.90
52127;DHT22;38120;53.176;6.614;2023-02-15T18:58:20;6.50;99.90
52127;DHT22;38120;53.176;6.614;2023-02-15T19:00:46;6.40;99.90
52127;DHT22;38120;53.176;6.614;2023-02-15T19:03:14;6.50;99.90
52127;DHT22;38120;53.176;6.614;2023-02-15T19:05:44;6.40;99.90
52127;DHT22;38120;53.176;6.614;2023-02-15T19:08:19;6.40;99.90
52127;DHT22;38120;53.176;6.614;2023-02-15T19:10:49;6.40;99.90
52127;DHT22;38120;53.176;6.614;2023-02-15T19:13:16;6.40;99.90
52127;DHT22;38120;53.176;6.614;2023-02-15T19:15:42;6.30;99.90
52127;DHT22;38120;53.176;6.614;2023-02-15T19:18:09;6.60;99.90
52127;DHT22;38120;53.176;6.614;2023-02-15T19:20:40;6.30;99.90
52127;DHT22;38120;53.176;6.614;2023-02-15T19:23:13;6.30;99.90
52127;DHT22;38120;53.176;6.614;2023-02-15T19:25:40;6.30;99.90
52127;DHT22;38120;53.176;6.614;2023-02-15T19:28:18;6.30;99.90
52127;DHT22;38120;53.176;6.614;2023-02-15T19:30:44;6.30;99.90
52127;DHT22;38120;53.176;6.614;2023-02-15T19:33:18;6.20;99.90
52127;DHT22;38120;53.176;6.614;2023-02-15T19:35:46;6.20;99.90
52127;DHT22;38120;53.176;6.614;2023-02-15T19:38:23;6.20;99.90
52127;DHT22;38120;53.176;6.614;2023-02-15T19:40:50;6.10;99.90
52127;DHT22;38120;53.176;6.614;2023-02-15T19:43:18;6.20;99.90